Batatais, Brazil
Current Conditions -  °F | °C
As of 1:00 AM on Sunday 25 Jan 2015 (Local Time) from SBRP Reporting Station
Rain Showers Rain Showers  
Wind Chill: 73°   Ceiling: 9000
Heat Index: 73°   Visibility: 6mi
Dew Point: 64°   Wind: 10mph
Humidity: 73%   Direction: 80°E
Pressure: NA   Gusts: NA
Location:  20.89°S, 47.58°W
Report Text: SBRP 250300Z 08009KT 9999 VCSH FEW045 FEW049TCU BKN090 23/18 Q1014
Loading
Personal Weather Stations






























Interactive Weather Map New forecast layout! Learn more

10-Day Weather Forecast

Advertisements
Track Severe Weather on mobile